Time;durP1;ratioP1;P1;durP2;ratioP2;P2;SDS_P1;SDS_P2;PMS_P1;PMS_P2;Temp;Humidity;BMP_temperature;BMP_pressure;BME280_temperature;BME280_humidity;BME280_pressure;Samples;Min_cycle;Max_cycle;Signal;HPM_P1;HPM_P2
2023/08/15 00:00:52;;;;;;;1.13;0.70;;;15.20;99.90;;;;;;5148378;27;20193;-85
2023/08/15 00:03:23;;;;;;;1.92;0.77;;;15.30;99.90;;;;;;5152559;27;20197;-85
2023/08/15 00:05:53;;;;;;;0.95;0.70;;;15.30;99.90;;;;;;5153243;27;20185;-86
2023/08/15 00:08:24;;;;;;;1.13;0.73;;;15.40;99.90;;;;;;5153273;27;20185;-86
2023/08/15 00:10:55;;;;;;;1.52;0.73;;;15.50;99.90;;;;;;5154144;27;20216;-85
2023/08/15 00:13:28;;;;;;;1.67;0.77;;;15.60;99.90;;;;;;5148472;27;20262;-84
2023/08/15 00:15:58;;;;;;;1.40;0.77;;;15.70;99.90;;;;;;5153151;27;20201;-85
2023/08/15 00:18:29;;;;;;;2.15;0.80;;;15.60;99.90;;;;;;5152736;27;20208;-85
2023/08/15 00:21:00;;;;;;;3.35;1.00;;;15.60;99.90;;;;;;5153201;27;20193;-83
2023/08/15 00:23:30;;;;;;;1.95;0.80;;;15.60;99.90;;;;;;5140629;27;20198;-84
2023/08/15 00:26:01;;;;;;;1.55;0.63;;;15.60;99.90;;;;;;5132356;27;20189;-83
2023/08/15 00:28:34;;;;;;;1.33;0.60;;;15.80;99.90;;;;;;5148700;27;20193;-84
2023/08/15 00:31:05;;;;;;;1.85;0.70;;;15.90;99.90;;;;;;5136310;27;20206;-84
2023/08/15 00:33:35;;;;;;;1.63;0.90;;;15.90;99.90;;;;;;5133700;27;20206;-84
2023/08/15 00:36:08;;;;;;;2.25;0.43;;;16.10;99.90;;;;;;5132932;27;20197;-83
2023/08/15 00:38:38;;;;;;;1.67;0.70;;;16.20;99.90;;;;;;5131714;27;20204;-86
2023/08/15 00:41:09;;;;;;;1.33;0.68;;;16.20;99.90;;;;;;5131654;28;20190;-84
2023/08/15 00:43:42;;;;;;;0.50;0.40;;;16.40;99.90;;;;;;5135214;27;20221;-83
2023/08/15 00:46:13;;;;;;;0.52;0.50;;;16.50;99.90;;;;;;5145234;27;20194;-84
2023/08/15 00:48:44;;;;;;;1.30;0.60;;;16.50;99.90;;;;;;5131708;28;20197;-84
2023/08/15 00:51:16;;;;;;;1.20;0.60;;;16.60;99.90;;;;;;5148328;27;20221;-82
2023/08/15 00:53:48;;;;;;;2.03;0.50;;;16.50;99.90;;;;;;5133465;27;20209;-83
2023/08/15 00:56:20;;;;;;;3.38;0.60;;;16.60;99.90;;;;;;5132398;27;20547;-84
2023/08/15 00:58:53;;;;;;;1.92;0.60;;;16.80;99.90;;;;;;5137203;27;20204;-85
2023/08/15 01:01:36;;;;;;;;;;;;;;;;;;;;;
2023/08/15 01:04:08;;;;;;;1.27;0.50;;;16.70;99.90;;;;;;5146920;27;20203;-86
2023/08/15 01:06:39;;;;;;;1.90;0.73;;;16.80;99.90;;;;;;5139045;27;20209;-85
2023/08/15 01:09:10;;;;;;;1.70;0.63;;;16.80;99.90;;;;;;5143795;27;20216;-85
2023/08/15 01:11:53;;;;;;;1.13;0.70;;;16.80;99.90;;;;;;5151582;27;20235;-85
2023/08/15 01:14:32;;;;;;;2.15;0.80;;;16.90;99.90;;;;;;5142034;27;20683;-85
2023/08/15 01:17:04;;;;;;;1.58;0.80;;;16.80;99.90;;;;;;5133023;27;20193;-85
2023/08/15 01:19:41;;;;;;;1.90;0.65;;;16.70;99.90;;;;;;5133094;27;20225;-85
2023/08/15 01:22:18;;;;;;;1.85;0.80;;;16.60;99.90;;;;;;5150166;27;20582;-83
2023/08/15 01:24:52;;;;;;;2.42;0.98;;;16.70;99.90;;;;;;5135432;27;20190;-84
2023/08/15 01:27:23;;;;;;;1.98;0.80;;;16.80;99.90;;;;;;5135532;27;20634;-86
2023/08/15 01:29:53;;;;;;;2.80;0.90;;;17.00;99.90;;;;;;5135135;27;20202;-83
2023/08/15 01:32:32;;;;;;;6.50;1.02;;;17.10;99.90;;;;;;5135455;27;20201;-84
2023/08/15 01:35:08;;;;;;;1.08;0.40;;;17.20;99.90;;;;;;5135936;27;20216;-85
2023/08/15 01:37:41;;;;;;;0.93;0.60;;;17.20;99.90;;;;;;5135308;27;20181;-84
2023/08/15 01:40:17;;;;;;;4.47;0.80;;;17.20;99.90;;;;;;5134696;27;20197;-84
2023/08/15 01:42:49;;;;;;;1.40;0.60;;;17.30;99.90;;;;;;5143211;27;20189;-84
2023/08/15 01:45:20;;;;;;;2.33;0.55;;;17.40;99.90;;;;;;5138243;27;20205;-84
2023/08/15 01:47:52;;;;;;;1.92;1.08;;;17.40;99.90;;;;;;5134889;27;20565;-87
2023/08/15 01:50:23;;;;;;;3.13;0.77;;;17.50;99.90;;;;;;5135639;27;20562;-87
2023/08/15 01:52:53;;;;;;;2.92;0.93;;;17.60;99.90;;;;;;5147119;27;20311;-86
2023/08/15 01:55:27;;;;;;;0.98;0.40;;;17.60;99.90;;;;;;5155852;27;20231;-87
2023/08/15 01:57:59;;;;;;;1.23;0.50;;;17.50;99.90;;;;;;5155100;27;20192;-87
2023/08/15 02:00:30;;;;;;;3.10;0.45;;;17.40;99.90;;;;;;5136013;27;20204;-87
2023/08/15 02:03:04;;;;;;;3.38;0.50;;;17.40;99.90;;;;;;5135959;27;20197;-88
2023/08/15 02:05:36;;;;;;;1.48;0.50;;;17.30;99.90;;;;;;5139548;27;20557;-88
2023/08/15 02:08:07;;;;;;;2.75;0.43;;;17.10;99.90;;;;;;5137642;27;20209;-88
2023/08/15 02:10:40;;;;;;;1.05;0.50;;;16.80;99.90;;;;;;5136873;27;20222;-90
2023/08/15 02:13:11;;;;;;;1.23;0.40;;;16.90;99.90;;;;;;5134878;27;20218;-89
2023/08/15 02:15:43;;;;;;;2.05;0.47;;;17.10;99.90;;;;;;5136242;27;20239;-87
2023/08/15 02:18:15;;;;;;;3.83;0.40;;;17.20;99.90;;;;;;5135543;27;20657;-86
2023/08/15 02:20:46;;;;;;;2.08;0.57;;;17.20;99.90;;;;;;5135710;27;20182;-85
2023/08/15 02:23:20;;;;;;;2.28;0.40;;;17.30;99.90;;;;;;5134498;27;20201;-88
2023/08/15 02:25:53;;;;;;;2.97;0.40;;;17.40;99.90;;;;;;5135494;27;20197;-87
2023/08/15 02:28:24;;;;;;;2.08;0.60;;;17.40;99.90;;;;;;5137722;27;20189;-84
2023/08/15 02:30:56;;;;;;;2.25;0.52;;;17.40;99.90;;;;;;5142526;27;20198;-86
2023/08/15 02:33:27;;;;;;;2.58;0.68;;;17.40;99.90;;;;;;5135400;27;20229;-85
2023/08/15 02:35:58;;;;;;;1.67;1.00;;;17.60;99.90;;;;;;5137634;27;20208;-87
2023/08/15 02:38:28;;;;;;;2.28;0.70;;;17.60;99.90;;;;;;5134790;27;20369;-86
2023/08/15 02:41:02;;;;;;;3.47;0.60;;;17.60;99.90;;;;;;5137144;27;20198;-85
2023/08/15 02:43:33;;;;;;;3.55;1.02;;;17.60;99.90;;;;;;5148597;27;20305;-86
2023/08/15 02:46:04;;;;;;;3.25;0.75;;;17.70;99.90;;;;;;5144334;27;20686;-84
2023/08/15 02:48:35;;;;;;;3.28;1.20;;;17.70;99.90;;;;;;5157658;27;20567;-87
2023/08/15 02:51:07;;;;;;;3.58;0.80;;;17.60;99.90;;;;;;5156087;27;20596;-87
2023/08/15 02:53:38;;;;;;;1.83;0.75;;;17.60;99.90;;;;;;5154412;27;20695;-86
2023/08/15 02:56:11;;;;;;;3.67;0.90;;;17.50;99.90;;;;;;5159116;27;20192;-84
2023/08/15 02:58:42;;;;;;;1.17;0.60;;;17.40;99.90;;;;;;5155021;27;20672;-87
2023/08/15 03:01:12;;;;;;;3.88;1.08;;;17.30;99.90;;;;;;5154400;27;20197;-84
2023/08/15 03:03:43;;;;;;;2.38;0.95;;;17.40;99.90;;;;;;5146403;27;20200;-84
2023/08/15 03:06:17;;;;;;;1.98;0.70;;;17.40;99.90;;;;;;5147767;27;20200;-84
2023/08/15 03:08:48;;;;;;;3.53;0.88;;;17.40;99.90;;;;;;5138136;27;20193;-85
2023/08/15 03:11:39;;;;;;;2.47;0.70;;;17.40;99.90;;;;;;5136091;27;20190;-87
2023/08/15 03:14:10;;;;;;;2.53;0.52;;;17.40;99.90;;;;;;5141788;27;20193;-85
2023/08/15 03:16:41;;;;;;;3.03;0.75;;;17.40;99.90;;;;;;5134651;27;20667;-87
2023/08/15 03:19:11;;;;;;;1.42;0.50;;;17.30;99.90;;;;;;5134325;27;20221;-85
2023/08/15 03:21:42;;;;;;;2.85;0.70;;;17.20;99.90;;;;;;5141875;27;20189;-84
2023/08/15 03:24:13;;;;;;;6.72;1.30;;;17.20;99.90;;;;;;5147247;27;20197;-86
2023/08/15 03:26:46;;;;;;;2.00;0.80;;;17.30;99.90;;;;;;5145809;27;20202;-85
2023/08/15 03:29:17;;;;;;;2.53;0.60;;;17.20;99.90;;;;;;5141412;27;20234;-85
2023/08/15 03:31:48;;;;;;;3.45;0.80;;;17.30;99.90;;;;;;5146003;27;20189;-87
2023/08/15 03:34:20;;;;;;;2.78;0.60;;;17.50;99.90;;;;;;5133554;27;20190;-86
2023/08/15 03:36:51;;;;;;;3.47;0.80;;;17.70;99.90;;;;;;5136688;27;20208;-84
2023/08/15 03:39:21;;;;;;;4.28;0.80;;;17.80;99.90;;;;;;5152824;27;20185;-86
2023/08/15 03:41:56;;;;;;;1.20;0.70;;;17.90;99.90;;;;;;5136586;27;20208;-86
2023/08/15 03:44:27;;;;;;;2.70;0.65;;;17.80;99.90;;;;;;5140825;27;20255;-86
2023/08/15 03:46:58;;;;;;;3.67;0.98;;;17.70;99.90;;;;;;5154491;27;20184;-86
2023/08/15 03:49:28;;;;;;;3.58;0.80;;;17.70;99.90;;;;;;5154135;27;20616;-84
2023/08/15 03:51:59;;;;;;;1.75;0.50;;;17.70;99.90;;;;;;5153926;27;20200;-85
2023/08/15 03:54:30;;;;;;;2.55;0.50;;;17.70;99.90;;;;;;5146696;27;20192;-85
2023/08/15 03:57:02;;;;;;;4.60;0.60;;;17.60;99.90;;;;;;5141395;27;20213;-85
2023/08/15 03:59:33;;;;;;;1.20;0.40;;;17.60;99.90;;;;;;5151111;27;20193;-87
2023/08/15 04:02:04;;;;;;;2.10;0.47;;;17.50;99.90;;;;;;5132709;27;20182;-84
2023/08/15 04:04:35;;;;;;;1.98;0.70;;;17.60;99.90;;;;;;5135052;27;20186;-87
2023/08/15 04:07:05;;;;;;;3.80;0.50;;;17.50;99.90;;;;;;5133678;27;20649;-86
2023/08/15 04:09:37;;;;;;;3.42;0.50;;;17.50;99.90;;;;;;5146477;27;20197;-87
2023/08/15 04:12:12;;;;;;;1.60;0.47;;;17.40;99.90;;;;;;5143001;27;20503;-87
2023/08/15 04:14:43;;;;;;;3.72;1.13;;;17.30;99.90;;;;;;5141896;27;20189;-84
2023/08/15 04:17:14;;;;;;;2.70;0.65;;;17.30;99.90;;;;;;5133403;27;20465;-85
2023/08/15 04:19:46;;;;;;;2.97;0.77;;;17.50;99.90;;;;;;5133381;27;20229;-86
2023/08/15 04:22:17;;;;;;;4.78;0.73;;;17.50;99.90;;;;;;5133660;27;20200;-85
2023/08/15 04:24:47;;;;;;;2.00;0.50;;;17.50;99.90;;;;;;5133256;27;20225;-86
2023/08/15 04:27:21;;;;;;;1.50;0.60;;;17.50;99.90;;;;;;5133152;27;20205;-84
2023/08/15 04:29:52;;;;;;;3.05;0.80;;;17.60;99.90;;;;;;5132912;27;20245;-84
2023/08/15 04:32:22;;;;;;;3.45;0.70;;;17.70;99.90;;;;;;5148109;27;20205;-86
2023/08/15 04:34:53;;;;;;;3.22;0.75;;;17.70;99.90;;;;;;5154168;27;20552;-84
2023/08/15 04:37:24;;;;;;;2.20;0.68;;;17.70;99.90;;;;;;5153778;27;20193;-84
2023/08/15 04:39:54;;;;;;;4.90;0.98;;;17.70;99.90;;;;;;5152577;27;20200;-85
2023/08/15 04:42:27;;;;;;;3.08;0.50;;;17.60;99.90;;;;;;5153313;27;20205;-85
2023/08/15 04:44:58;;;;;;;0.82;0.40;;;17.50;99.90;;;;;;5134577;28;20209;-85
2023/08/15 04:47:29;;;;;;;2.05;0.55;;;17.40;99.90;;;;;;5133725;28;20656;-85
2023/08/15 04:50:00;;;;;;;3.63;1.00;;;17.40;99.90;;;;;;5133692;28;20205;-82
2023/08/15 04:52:30;;;;;;;1.23;0.50;;;17.40;99.90;;;;;;5133737;27;20221;-85
2023/08/15 04:55:01;;;;;;;2.90;0.60;;;17.50;99.90;;;;;;5136583;27;20570;-84
2023/08/15 04:57:34;;;;;;;2.65;0.70;;;17.50;99.90;;;;;;5137512;27;20182;-85
2023/08/15 05:00:08;;;;;;;3.70;0.70;;;17.40;99.90;;;;;;5138533;27;20200;-87
2023/08/15 05:02:39;;;;;;;1.65;0.40;;;17.40;99.90;;;;;;5141554;27;20201;-86
2023/08/15 05:05:12;;;;;;;1.40;0.50;;;17.40;99.90;;;;;;5156652;27;20193;-86
2023/08/15 05:07:42;;;;;;;1.50;0.60;;;17.40;99.90;;;;;;5171720;27;20170;-83
2023/08/15 05:10:14;;;;;;;3.50;0.65;;;17.30;99.90;;;;;;5158081;27;20197;-85
2023/08/15 05:12:46;;;;;;;2.47;0.50;;;17.30;99.90;;;;;;5159705;27;20252;-86
2023/08/15 05:15:18;;;;;;;3.53;0.90;;;17.20;99.90;;;;;;5156561;27;20194;-85
2023/08/15 05:17:50;;;;;;;3.60;0.60;;;17.30;99.90;;;;;;5142257;27;20258;-86
2023/08/15 05:20:21;;;;;;;4.25;0.73;;;17.20;99.90;;;;;;5152312;27;20236;-85
2023/08/15 05:22:53;;;;;;;1.42;0.80;;;17.30;99.90;;;;;;5158051;27;20188;-84
2023/08/15 05:25:23;;;;;;;3.03;0.68;;;17.30;99.90;;;;;;5142082;27;20190;-86
2023/08/15 05:27:57;;;;;;;2.30;0.82;;;17.20;99.90;;;;;;5137017;27;20182;-83
2023/08/15 05:30:27;;;;;;;3.05;0.65;;;17.30;99.90;;;;;;5136884;27;20201;-85
2023/08/15 05:32:58;;;;;;;3.20;0.82;;;17.30;99.90;;;;;;5135634;27;20210;-85
2023/08/15 05:35:29;;;;;;;2.95;0.70;;;17.20;99.90;;;;;;5136308;27;20186;-85
2023/08/15 05:38:00;;;;;;;2.65;0.57;;;17.30;99.90;;;;;;5135959;27;20186;-85
2023/08/15 05:40:32;;;;;;;3.05;0.57;;;17.30;99.90;;;;;;5152366;27;20197;-86
2023/08/15 05:43:05;;;;;;;6.82;1.55;;;17.30;99.90;;;;;;5153375;27;20272;-87
2023/08/15 05:45:36;;;;;;;3.33;0.70;;;17.20;99.90;;;;;;5138792;27;20255;-85
2023/08/15 05:48:10;;;;;;;3.08;0.70;;;17.20;99.90;;;;;;5139548;27;20202;-85
2023/08/15 05:50:42;;;;;;;2.95;0.45;;;17.20;99.90;;;;;;5142007;27;20193;-86
2023/08/15 05:53:12;;;;;;;4.43;0.80;;;17.30;99.90;;;;;;5144170;27;20591;-83
2023/08/15 05:55:45;;;;;;;3.65;0.60;;;17.30;99.90;;;;;;5147789;27;20200;-84
2023/08/15 05:58:17;;;;;;;5.00;0.70;;;17.20;99.90;;;;;;5135184;27;20194;-84
2023/08/15 06:00:51;;;;;;;2.85;0.50;;;17.30;99.90;;;;;;5153710;27;20204;-85
2023/08/15 06:03:22;;;;;;;2.85;0.60;;;17.30;99.90;;;;;;5156148;27;20752;-85
2023/08/15 06:05:52;;;;;;;4.43;0.60;;;17.40;99.90;;;;;;5148314;27;20194;-86
2023/08/15 06:08:23;;;;;;;1.65;0.40;;;17.50;99.90;;;;;;5135813;27;20686;-86
2023/08/15 06:10:54;;;;;;;2.08;0.45;;;17.50;99.90;;;;;;5147042;27;20204;-87
2023/08/15 06:13:29;;;;;;;1.90;0.40;;;17.40;99.90;;;;;;5157450;27;20221;-86
2023/08/15 06:15:59;;;;;;;2.67;0.40;;;17.40;99.90;;;;;;5139141;27;20711;-84
2023/08/15 06:18:32;;;;;;;1.80;0.50;;;17.40;99.90;;;;;;5138747;27;20640;-85
2023/08/15 06:21:03;;;;;;;2.08;0.40;;;17.40;99.90;;;;;;5137002;27;20190;-86
2023/08/15 06:23:35;;;;;;;2.60;0.50;;;17.50;99.90;;;;;;5138479;27;20194;-86
2023/08/15 06:26:07;;;;;;;2.30;0.63;;;17.50;99.90;;;;;;5149275;27;20538;-85
2023/08/15 06:28:40;;;;;;;1.80;0.60;;;17.60;99.90;;;;;;5139164;27;20248;-86
2023/08/15 06:31:11;;;;;;;2.35;0.50;;;17.60;99.90;;;;;;5139946;27;20186;-87
2023/08/15 06:33:42;;;;;;;1.50;0.50;;;17.60;99.90;;;;;;5134383;27;20217;-84
2023/08/15 06:36:13;;;;;;;4.25;0.50;;;17.60;99.90;;;;;;5134463;27;20190;-86
2023/08/15 06:38:44;;;;;;;2.80;0.68;;;17.70;99.90;;;;;;5134790;27;20197;-85
2023/08/15 06:41:15;;;;;;;9.02;0.70;;;17.60;99.90;;;;;;5151561;27;20558;-87
2023/08/15 06:43:51;;;;;;;1.67;0.52;;;17.50;99.90;;;;;;5154749;27;20269;-85
2023/08/15 06:46:22;;;;;;;6.95;0.82;;;17.30;99.90;;;;;;5139391;27;20212;-86
2023/08/15 06:48:52;;;;;;;0.85;0.32;;;17.10;99.90;;;;;;5151597;27;20675;-86
2023/08/15 06:51:23;;;;;;;1.80;0.40;;;17.10;99.90;;;;;;5140139;27;20276;-85
2023/08/15 06:53:54;;;;;;;2.67;0.60;;;17.00;99.90;;;;;;5154673;27;20209;-84
2023/08/15 06:56:25;;;;;;;2.58;0.40;;;16.80;99.90;;;;;;5157042;27;20237;-86
2023/08/15 06:58:59;;;;;;;2.38;0.40;;;16.80;99.90;;;;;;5152682;27;20194;-87
2023/08/15 07:01:30;;;;;;;1.13;0.32;;;16.70;99.90;;;;;;5135707;27;20612;-88
2023/08/15 07:04:01;;;;;;;2.40;0.32;;;16.60;99.90;;;;;;5135272;27;20193;-86
2023/08/15 07:06:32;;;;;;;1.27;0.60;;;16.50;99.90;;;;;;5134577;27;20194;-86
2023/08/15 07:09:06;;;;;;;1.67;0.30;;;16.40;99.90;;;;;;5135043;27;20189;-84
2023/08/15 07:11:37;;;;;;;3.15;0.45;;;16.30;99.90;;;;;;5135362;27;20194;-84
2023/08/15 07:14:10;;;;;;;1.38;0.80;;;16.30;99.90;;;;;;5134542;27;20264;-86
2023/08/15 07:16:41;;;;;;;2.10;0.50;;;16.30;99.90;;;;;;5134919;27;20194;-87
2023/08/15 07:19:12;;;;;;;3.47;0.50;;;16.30;99.90;;;;;;5135076;27;20236;-87
2023/08/15 07:21:44;;;;;;;2.72;0.60;;;16.20;99.90;;;;;;5134459;27;20192;-86
2023/08/15 07:24:15;;;;;;;3.63;0.50;;;16.20;99.90;;;;;;5134466;27;20186;-87
2023/08/15 07:26:46;;;;;;;1.40;0.50;;;16.20;99.90;;;;;;5146981;27;20193;-86
2023/08/15 07:29:20;;;;;;;1.08;0.47;;;16.10;99.90;;;;;;5151614;27;20222;-87
2023/08/15 07:31:51;;;;;;;5.15;0.63;;;16.00;99.90;;;;;;5141389;27;20263;-85
2023/08/15 07:34:21;;;;;;;4.82;2.08;;;15.90;99.90;;;;;;5134810;27;20572;-86
2023/08/15 07:36:52;;;;;;;0.95;0.50;;;15.90;99.90;;;;;;5134304;27;20178;-86
2023/08/15 07:39:23;;;;;;;2.03;0.43;;;15.80;99.90;;;;;;5134815;27;20280;-87
2023/08/15 07:41:54;;;;;;;2.78;0.63;;;15.90;99.90;;;;;;5134645;27;20190;-87
2023/08/15 07:44:27;;;;;;;2.70;0.55;;;15.80;99.90;;;;;;5162004;27;20216;-87
2023/08/15 07:46:58;;;;;;;1.10;0.50;;;15.80;99.90;;;;;;5154345;27;20690;-86
2023/08/15 07:49:29;;;;;;;1.73;0.60;;;15.80;99.90;;;;;;5145713;27;20201;-88
2023/08/15 07:51:59;;;;;;;1.98;0.50;;;15.70;99.90;;;;;;5133088;27;20197;-88
2023/08/15 07:54:30;;;;;;;4.50;0.60;;;15.70;99.90;;;;;;5132506;27;20213;-82
2023/08/15 07:57:01;;;;;;;3.95;1.20;;;15.80;99.90;;;;;;5151377;27;20253;-89
2023/08/15 07:59:33;;;;;;;0.90;0.40;;;15.80;99.90;;;;;;5144010;27;20190;-87
2023/08/15 08:02:08;;;;;;;1.13;0.50;;;15.80;99.90;;;;;;5144956;27;20204;-87
2023/08/15 08:04:41;;;;;;;3.25;0.55;;;15.80;99.90;;;;;;5133076;27;20362;-87
2023/08/15 08:07:11;;;;;;;1.90;0.45;;;15.70;99.90;;;;;;5137090;27;20251;-86
2023/08/15 08:09:42;;;;;;;1.70;0.65;;;15.70;99.90;;;;;;5133145;27;20189;-85
2023/08/15 08:12:13;;;;;;;1.85;0.80;;;15.70;99.90;;;;;;5133415;27;20192;-86
2023/08/15 08:14:47;;;;;;;2.15;1.10;;;15.70;99.90;;;;;;5135520;27;20731;-86
2023/08/15 08:17:18;;;;;;;2.53;1.40;;;15.60;99.90;;;;;;5133932;27;20188;-86
2023/08/15 08:19:48;;;;;;;1.92;0.95;;;15.60;99.90;;;;;;5133430;27;20252;-87
2023/08/15 08:22:19;;;;;;;2.70;1.20;;;15.60;99.90;;;;;;5146057;27;20201;-87
2023/08/15 08:24:53;;;;;;;1.45;0.90;;;15.60;99.90;;;;;;5155063;27;20185;-86
2023/08/15 08:30:10;;;;;;;1.13;0.70;;;15.60;99.90;;;;;;5142016;27;20214;-87
2023/08/15 08:32:41;;;;;;;1.60;0.60;;;15.60;99.90;;;;;;5132230;27;20186;-85
2023/08/15 08:35:15;;;;;;;1.38;1.00;;;15.60;99.90;;;;;;5134678;27;20237;-87
2023/08/15 08:37:46;;;;;;;3.17;1.00;;;15.50;99.90;;;;;;5153095;27;20269;-85
2023/08/15 08:40:17;;;;;;;1.15;0.95;;;15.50;99.90;;;;;;5139345;27;20644;-85
2023/08/15 08:42:49;;;;;;;3.53;1.05;;;15.50;99.90;;;;;;5140793;27;20186;-86
2023/08/15 08:45:26;;;;;;;2.80;0.98;;;15.60;99.90;;;;;;5139566;27;20194;-83
2023/08/15 08:47:58;;;;;;;3.55;1.30;;;15.50;99.90;;;;;;5131655;27;20209;-86
2023/08/15 08:50:30;;;;;;;3.97;1.50;;;15.50;99.90;;;;;;5132341;28;20206;-85
2023/08/15 08:53:01;;;;;;;1.77;1.60;;;15.50;99.90;;;;;;5131670;27;20204;-85
2023/08/15 08:55:34;;;;;;;2.40;1.20;;;15.50;99.90;;;;;;5131430;28;20225;-84
2023/08/15 08:58:05;;;;;;;1.70;0.98;;;15.50;99.90;;;;;;5131936;28;20185;-84
2023/08/15 09:00:39;;;;;;;2.47;1.00;;;15.50;99.90;;;;;;5143621;27;20201;-84
2023/08/15 09:03:11;;;;;;;1.67;0.70;;;15.50;99.90;;;;;;5153485;27;20264;-87
2023/08/15 09:05:44;;;;;;;1.33;0.80;;;15.50;99.90;;;;;;5138000;28;20190;-84
2023/08/15 09:08:16;;;;;;;1.48;0.88;;;15.50;99.90;;;;;;5152298;28;20205;-84
2023/08/15 09:10:47;;;;;;;2.13;0.85;;;15.50;99.90;;;;;;5154359;28;20205;-84
2023/08/15 09:13:25;;;;;;;2.85;1.20;;;15.50;99.90;;;;;;5156849;27;20226;-83
2023/08/15 09:15:59;;;;;;;3.20;0.85;;;15.50;99.90;;;;;;5157574;27;20190;-85
2023/08/15 09:18:35;;;;;;;2.95;1.10;;;15.50;99.90;;;;;;5150941;27;20716;-85
2023/08/15 09:21:08;;;;;;;2.92;1.13;;;15.50;99.90;;;;;;5152032;27;20181;-86
2023/08/15 09:23:42;;;;;;;2.78;1.00;;;15.50;99.90;;;;;;5131261;28;20194;-85
2023/08/15 09:26:17;;;;;;;2.33;1.20;;;15.40;99.90;;;;;;5132806;28;20194;-85
2023/08/15 09:28:48;;;;;;;2.35;1.10;;;15.40;99.90;;;;;;5132151;27;20217;-84
2023/08/15 09:31:22;;;;;;;3.10;1.10;;;15.40;99.90;;;;;;5131874;28;20205;-86
2023/08/15 09:33:54;;;;;;;4.22;1.25;;;15.40;99.90;;;;;;5133478;27;20194;-84
2023/08/15 09:36:27;;;;;;;2.78;1.20;;;15.40;99.90;;;;;;5141222;27;20706;-84
2023/08/15 09:39:06;;;;;;;3.25;1.00;;;15.30;99.90;;;;;;5133534;27;20193;-88
2023/08/15 09:41:42;;;;;;;1.13;0.88;;;15.40;99.90;;;;;;5149712;27;20189;-87
2023/08/15 09:44:12;;;;;;;1.70;0.90;;;15.40;99.90;;;;;;5154588;27;20194;-87
2023/08/15 09:46:48;;;;;;;1.77;0.80;;;15.40;99.90;;;;;;5139332;27;20190;-86
2023/08/15 09:49:22;;;;;;;2.70;1.25;;;15.30;99.90;;;;;;5156583;27;20212;-85
2023/08/15 09:51:53;;;;;;;2.40;0.98;;;15.30;99.90;;;;;;5158475;27;20193;-85
2023/08/15 09:54:27;;;;;;;1.85;0.90;;;15.30;99.90;;;;;;5138838;27;22273;-86
2023/08/15 09:56:59;;;;;;;1.42;0.90;;;15.40;99.90;;;;;;5136102;27;20190;-86
2023/08/15 09:59:30;;;;;;;1.95;0.98;;;15.30;99.90;;;;;;5137991;27;20201;-86
2023/08/15 10:02:03;;;;;;;1.10;0.90;;;15.30;99.90;;;;;;5136701;27;20210;-85
2023/08/15 10:04:36;;;;;;;1.95;1.10;;;15.30;99.90;;;;;;5149476;27;20209;-85
2023/08/15 10:07:08;;;;;;;0.98;0.65;;;15.30;99.90;;;;;;5146661;27;20266;-86
2023/08/15 10:09:40;;;;;;;1.90;1.02;;;15.30;99.90;;;;;;5142778;27;20208;-85
2023/08/15 10:12:11;;;;;;;1.10;0.90;;;15.30;99.90;;;;;;5142611;27;20189;-84
2023/08/15 10:14:42;;;;;;;0.95;0.60;;;15.30;99.90;;;;;;5142867;27;20274;-86
2023/08/15 10:17:16;;;;;;;1.48;0.90;;;15.30;99.90;;;;;;5156934;27;20197;-86
2023/08/15 10:19:52;;;;;;;2.33;0.95;;;15.30;99.90;;;;;;5151302;27;20218;-85
2023/08/15 10:22:26;;;;;;;3.28;1.25;;;15.30;99.90;;;;;;5120183;27;20748;-87
2023/08/15 10:25:18;;;;;;;1.83;1.02;;;15.20;99.90;;;;;;5138321;27;20201;-85
2023/08/15 10:27:51;;;;;;;2.55;1.40;;;15.20;99.90;;;;;;5135808;27;20198;-82
2023/08/15 10:30:33;;;;;;;2.00;1.42;;;15.10;99.90;;;;;;5135678;27;20197;-83
2023/08/15 10:33:16;;;;;;;1.60;1.15;;;15.10;99.90;;;;;;5138440;27;20723;-85
2023/08/15 10:36:09;;;;;;;2.38;1.25;;;15.10;99.90;;;;;;5153795;27;20224;-84
2023/08/15 10:38:45;;;;;;;2.47;1.70;;;15.10;99.90;;;;;;5131082;27;20190;-87
2023/08/15 10:41:18;;;;;;;3.05;1.42;;;15.10;99.90;;;;;;5149319;27;20271;-83
2023/08/15 10:43:50;;;;;;;1.45;1.10;;;15.10;99.90;;;;;;5146972;27;20197;-84
2023/08/15 10:46:27;;;;;;;1.90;1.40;;;15.10;99.90;;;;;;5151981;27;20197;-86
2023/08/15 10:49:05;;;;;;;4.22;2.00;;;15.10;99.90;;;;;;5141635;27;20193;-85
2023/08/15 10:51:38;;;;;;;4.07;1.50;;;15.10;99.90;;;;;;5134138;27;20247;-84
2023/08/15 10:54:11;;;;;;;4.60;2.22;;;15.00;99.90;;;;;;5139877;27;20193;-84
2023/08/15 10:56:42;;;;;;;2.47;1.83;;;15.00;99.90;;;;;;5154773;27;20193;-84
2023/08/15 10:59:14;;;;;;;3.17;2.10;;;14.90;99.90;;;;;;5145711;27;20186;-83
2023/08/15 11:01:46;;;;;;;3.78;1.83;;;14.90;99.90;;;;;;5141155;27;20655;-82
2023/08/15 11:04:19;;;;;;;4.32;1.60;;;14.80;99.90;;;;;;5154714;27;20193;-84
2023/08/15 11:06:52;;;;;;;4.38;1.60;;;14.70;99.90;;;;;;5154617;27;20200;-85
2023/08/15 11:09:29;;;;;;;2.65;1.63;;;14.70;99.90;;;;;;5133909;27;20193;-84
2023/08/15 11:12:08;;;;;;;2.05;1.60;;;14.60;99.90;;;;;;5137352;27;20194;-90
2023/08/15 11:14:39;;;;;;;2.42;1.23;;;14.50;99.90;;;;;;5134372;27;20244;-85
2023/08/15 11:17:10;;;;;;;2.15;1.10;;;14.50;99.90;;;;;;5138998;27;20204;-85
2023/08/15 11:19:43;;;;;;;2.58;1.52;;;14.50;99.90;;;;;;5134578;27;20232;-85
2023/08/15 11:22:15;;;;;;;2.85;1.63;;;14.50;99.90;;;;;;5135669;27;20182;-86
2023/08/15 11:24:45;;;;;;;2.00;1.20;;;14.50;99.90;;;;;;5134620;27;20200;-86
2023/08/15 11:27:16;;;;;;;2.58;1.20;;;14.60;99.90;;;;;;5135126;27;20193;-85
2023/08/15 11:29:57;;;;;;;2.40;1.05;;;14.60;99.90;;;;;;5136891;27;20213;-85
2023/08/15 11:32:28;;;;;;;2.28;1.15;;;14.60;99.90;;;;;;5134535;27;20193;-84
2023/08/15 11:35:03;;;;;;;2.97;1.65;;;14.60;99.90;;;;;;5133463;27;20210;-85
2023/08/15 11:37:34;;;;;;;1.83;1.20;;;14.60;99.90;;;;;;5134037;27;20713;-84
2023/08/15 11:40:06;;;;;;;2.38;1.38;;;14.50;99.90;;;;;;5134803;27;20208;-85
2023/08/15 11:42:38;;;;;;;2.60;1.30;;;14.50;99.90;;;;;;5144501;27;20200;-86
2023/08/15 11:45:21;;;;;;;1.80;1.10;;;14.30;99.90;;;;;;5145243;27;20627;-86
2023/08/15 11:48:02;;;;;;;1.55;1.15;;;14.30;99.90;;;;;;5144107;27;20193;-86
2023/08/15 11:50:36;;;;;;;3.33;1.27;;;14.20;99.90;;;;;;5137044;27;20182;-86
2023/08/15 11:53:12;;;;;;;2.53;1.55;;;14.30;99.90;;;;;;5136701;27;20194;-86
2023/08/15 11:55:44;;;;;;;3.65;1.80;;;14.20;99.90;;;;;;5154695;27;20301;-85
2023/08/15 11:58:28;;;;;;;3.85;2.58;;;14.20;99.90;;;;;;5157201;27;20224;-86
2023/08/15 12:01:02;;;;;;;3.70;2.00;;;14.30;99.90;;;;;;5142098;27;20815;-86
2023/08/15 12:03:34;;;;;;;2.40;1.73;;;14.30;99.90;;;;;;5136197;27;20214;-86
2023/08/15 12:06:11;;;;;;;2.53;1.60;;;14.40;99.90;;;;;;5137090;27;20201;-86
2023/08/15 12:08:45;;;;;;;3.50;1.65;;;14.40;99.90;;;;;;5151204;27;20710;-86
2023/08/15 12:11:20;;;;;;;2.33;1.50;;;14.40;99.90;;;;;;5158668;27;20189;-86
2023/08/15 12:13:52;;;;;;;4.60;1.70;;;14.40;99.90;;;;;;5157185;27;20734;-88
2023/08/15 12:16:23;;;;;;;4.25;2.15;;;14.40;99.90;;;;;;5153166;27;20280;-87
2023/08/15 12:18:56;;;;;;;4.35;3.00;;;14.30;99.90;;;;;;5159193;27;20217;-88
2023/08/15 12:21:28;;;;;;;6.90;4.15;;;14.30;99.90;;;;;;5143633;27;20204;-88
2023/08/15 12:24:00;;;;;;;4.05;2.95;;;14.30;99.90;;;;;;5155984;27;20194;-86
2023/08/15 12:26:32;;;;;;;3.90;2.00;;;14.30;99.90;;;;;;5139930;27;20182;-87
2023/08/15 12:29:03;;;;;;;3.40;1.90;;;14.20;99.90;;;;;;5148254;27;20219;-89
2023/08/15 12:31:36;;;;;;;3.60;1.70;;;14.20;99.90;;;;;;5161776;27;20223;-87
2023/08/15 12:34:07;;;;;;;2.50;1.63;;;14.30;99.90;;;;;;5159281;27;20192;-90
2023/08/15 12:36:41;;;;;;;2.20;1.40;;;14.20;99.90;;;;;;5161281;27;20227;-87
2023/08/15 12:39:12;;;;;;;2.10;1.30;;;14.20;99.90;;;;;;5156095;27;20181;-87
2023/08/15 12:41:44;;;;;;;2.58;1.40;;;14.10;99.90;;;;;;5134216;27;20233;-87
2023/08/15 12:44:15;;;;;;;3.90;1.70;;;14.20;99.90;;;;;;5152776;27;20268;-87
2023/08/15 12:46:47;;;;;;;4.20;1.65;;;14.10;99.90;;;;;;5153291;27;20279;-86
2023/08/15 12:49:17;;;;;;;3.95;1.40;;;14.10;99.90;;;;;;5155322;27;20188;-89
2023/08/15 12:51:51;;;;;;;1.90;1.42;;;14.10;99.90;;;;;;5143170;27;20186;-89
2023/08/15 12:54:22;;;;;;;4.00;2.00;;;14.10;99.90;;;;;;5140423;27;20198;-87
2023/08/15 12:56:53;;;;;;;3.75;1.55;;;14.10;99.90;;;;;;5143768;27;20232;-89
2023/08/15 12:59:24;;;;;;;3.42;1.35;;;14.10;99.90;;;;;;5141911;27;20194;-86
2023/08/15 13:01:55;;;;;;;2.88;1.42;;;14.00;99.90;;;;;;5154365;27;20198;-87
2023/08/15 13:04:27;;;;;;;2.45;1.48;;;14.00;99.90;;;;;;5155713;27;20200;-86
2023/08/15 13:07:00;;;;;;;1.95;1.30;;;13.90;99.90;;;;;;5157560;27;20197;-87
2023/08/15 13:09:31;;;;;;;1.75;1.10;;;13.80;99.90;;;;;;5141576;27;20205;-87
2023/08/15 13:12:02;;;;;;;1.85;1.38;;;13.80;99.90;;;;;;5132907;28;20190;-87
2023/08/15 13:14:32;;;;;;;3.50;1.52;;;13.80;99.90;;;;;;5135835;27;20208;-89
2023/08/15 13:17:04;;;;;;;2.45;1.48;;;13.80;99.90;;;;;;5137844;27;20225;-89